Time;durP1;ratioP1;P1;durP2;ratioP2;P2;SDS_P1;SDS_P2;PMS_P1;PMS_P2;Temp;Humidity;BMP_temperature;BMP_pressure;BME280_temperature;BME280_humidity;BME280_pressure;Samples;Min_cycle;Max_cycle;Signal;HPM_P1;HPM_P2
2023/03/31 00:02:00;;;;;;;9.63;4.00;;;11.30;99.90;;;10.63;82.42;99842.84;5016681;28;20192;-75
2023/03/31 00:04:32;;;;;;;11.20;4.30;;;11.30;99.90;;;10.63;82.31;99832.13;5016198;28;20215;-75
2023/03/31 00:07:07;;;;;;;7.97;3.50;;;11.30;99.90;;;10.64;82.17;99835.63;5016397;28;20227;-75
2023/03/31 00:09:40;;;;;;;7.03;4.23;;;11.20;99.90;;;10.62;82.07;99825.09;5015195;28;20187;-75
2023/03/31 00:12:13;;;;;;;9.43;3.70;;;11.20;99.90;;;10.64;81.84;99824.94;5016683;28;20203;-75
2023/03/31 00:14:45;;;;;;;8.47;3.07;;;11.20;99.90;;;10.62;82.36;99824.25;5016432;28;20192;-76
2023/03/31 00:17:17;;;;;;;7.97;3.17;;;11.30;99.90;;;10.61;81.77;99826.13;5016550;28;20227;-76
2023/03/31 00:19:49;;;;;;;8.27;3.10;;;11.20;99.90;;;10.63;81.60;99818.75;5016305;28;20191;-75
2023/03/31 00:22:26;;;;;;;9.83;3.30;;;11.30;99.90;;;10.65;81.62;99822.06;5016276;28;20187;-75
2023/03/31 00:24:58;;;;;;;7.40;2.93;;;11.30;99.90;;;10.65;81.28;99829.28;5016482;28;20199;-75
2023/03/31 00:27:30;;;;;;;7.60;2.93;;;11.30;99.90;;;10.67;81.11;99821.88;5015851;28;20676;-75
2023/03/31 00:30:01;;;;;;;7.57;2.47;;;11.30;99.90;;;10.68;80.64;99808.31;5015854;28;20687;-75
2023/03/31 00:32:33;;;;;;;9.83;3.07;;;11.30;99.90;;;10.72;80.20;99813.31;5016042;28;20556;-75
2023/03/31 00:35:07;;;;;;;8.83;3.30;;;11.30;99.90;;;10.72;80.29;99799.94;5016213;28;20302;-75
2023/03/31 00:37:42;;;;;;;8.83;3.13;;;11.40;99.90;;;10.75;79.99;99796.88;5015735;28;20645;-75
2023/03/31 00:40:15;;;;;;;7.83;2.87;;;11.40;99.90;;;10.72;79.81;99792.69;5015978;28;20191;-75
2023/03/31 00:42:47;;;;;;;9.03;2.63;;;11.40;99.90;;;10.68;80.02;99796.78;5015897;28;20195;-75
2023/03/31 00:45:30;;;;;;;9.87;3.00;;;11.30;99.90;;;10.66;80.06;99796.94;5015768;28;20202;-75
2023/03/31 00:48:14;;;;;;;6.93;2.67;;;11.30;99.90;;;10.63;80.33;99794.66;5015658;28;20783;-75
2023/03/31 00:50:54;;;;;;;8.17;3.10;;;11.30;99.90;;;10.60;80.08;99792.34;5015346;28;20211;-75
2023/03/31 00:53:32;;;;;;;7.23;3.20;;;11.30;99.90;;;10.59;79.97;99792.50;5015952;28;20191;-75
2023/03/31 00:56:12;;;;;;;8.63;2.67;;;11.20;99.90;;;10.57;80.07;99791.88;5015452;28;20239;-75
2023/03/31 00:58:46;;;;;;;7.63;2.90;;;11.20;99.90;;;10.55;80.13;99797.41;5015593;28;20207;-75
2023/03/31 01:01:23;;;;;;;6.37;2.67;;;11.20;99.90;;;10.57;79.61;99790.03;5015591;28;20191;-75
2023/03/31 01:03:56;;;;;;;7.53;2.50;;;11.20;99.90;;;10.55;79.68;99792.03;5015765;28;20227;-75
2023/03/31 01:06:29;;;;;;;6.77;2.53;;;11.20;99.90;;;10.53;79.54;99786.06;5015402;28;20227;-75
2023/03/31 01:09:05;;;;;;;7.27;2.80;;;11.10;99.90;;;10.52;79.80;99773.69;5015055;28;20211;-75
2023/03/31 01:11:38;;;;;;;6.73;2.67;;;11.20;99.90;;;10.49;79.86;99768.69;5015351;28;20191;-75
2023/03/31 01:14:09;;;;;;;8.53;2.50;;;11.10;99.90;;;10.49;80.11;99766.03;5015326;28;20192;-75
2023/03/31 01:16:41;;;;;;;7.07;2.80;;;11.10;99.90;;;10.52;79.59;99760.31;5015438;28;20227;-75
2023/03/31 01:19:26;;;;;;;5.57;2.63;;;11.20;99.90;;;10.52;79.76;99751.44;5015216;28;20206;-75
2023/03/31 01:22:44;;;;;;;7.93;2.53;;;11.20;99.90;;;10.52;79.73;99749.59;5014791;28;20212;-75
2023/03/31 01:26:04;;;;;;;9.23;2.87;;;11.20;99.90;;;10.54;79.33;99741.41;5014739;28;20667;-75
2023/03/31 01:28:41;;;;;;;6.17;2.30;;;11.20;99.90;;;10.53;79.66;99745.91;5014984;28;20239;-75
2023/03/31 01:31:56;;;;;;;5.33;2.53;;;11.20;99.90;;;10.55;78.94;99743.03;5015015;28;20198;-75
2023/03/31 01:35:08;;;;;;;7.37;2.50;;;11.20;99.90;;;10.53;79.05;99729.03;4984615;28;20208;-75
2023/03/31 01:38:44;;;;;;;6.37;2.67;;;11.20;99.90;;;10.53;79.04;99719.16;5014537;28;20680;-75
2023/03/31 01:41:42;;;;;;;6.53;2.30;;;11.20;99.90;;;10.49;78.92;99720.53;4992962;28;20215;-75
2023/03/31 01:44:25;;;;;;;6.50;2.50;;;11.10;99.90;;;10.46;78.97;99714.72;5014798;28;20196;-75
2023/03/31 01:47:01;;;;;;;3.93;2.10;;;11.10;99.90;;;10.45;78.69;99711.19;5014669;28;20234;-75
2023/03/31 01:49:43;;;;;;;8.30;2.63;;;11.10;99.90;;;10.41;79.05;99709.91;5014625;28;20211;-75
2023/03/31 01:52:25;;;;;;;5.97;2.60;;;11.10;99.90;;;10.40;78.76;99700.25;5014322;28;20650;-75
2023/03/31 01:55:07;;;;;;;5.80;2.83;;;11.10;99.90;;;10.41;78.64;99709.09;5014533;28;20192;-75
2023/03/31 01:57:47;;;;;;;9.03;3.63;;;11.00;99.90;;;10.37;nan;99705.97;5014768;28;20184;-75
2023/03/31 02:00:25;;;;;;;5.30;2.47;;;11.00;99.90;;;10.36;78.80;99701.63;5014218;28;20701;-75
2023/03/31 02:03:06;;;;;;;7.83;2.30;;;11.00;99.90;;;10.33;79.17;99693.97;5014488;28;20199;-75
2023/03/31 02:05:47;;;;;;;7.53;2.70;;;11.00;99.90;;;10.35;78.73;99688.41;5014086;28;20712;-75
2023/03/31 02:08:25;;;;;;;4.70;2.50;;;11.00;99.90;;;10.33;79.04;99685.94;5013994;28;20270;-75
2023/03/31 02:10:59;;;;;;;6.27;2.90;;;11.00;99.90;;;10.31;78.97;99671.09;5014303;28;20187;-75
2023/03/31 02:13:37;;;;;;;6.30;2.23;;;11.00;99.90;;;10.29;78.85;99665.91;5014284;28;20192;-75
2023/03/31 02:16:16;;;;;;;5.57;2.20;;;10.90;99.90;;;10.26;78.92;99666.28;5014170;28;20227;-75
2023/03/31 02:18:51;;;;;;;6.03;2.97;;;10.90;99.90;;;10.22;79.12;99662.31;5013895;28;20633;-75
2023/03/31 02:21:25;;;;;;;5.90;2.30;;;10.90;99.90;;;10.21;79.25;99665.16;5013949;28;20362;-75
2023/03/31 02:24:02;;;;;;;7.60;2.57;;;10.90;99.90;;;10.15;79.55;99661.38;5013571;28;20187;-75
2023/03/31 02:26:41;;;;;;;6.37;2.60;;;10.80;99.90;;;10.10;79.55;99661.91;5013055;28;20231;-75
2023/03/31 02:29:15;;;;;;;7.07;2.67;;;10.70;99.90;;;10.04;79.85;99661.78;5013277;28;20212;-75
2023/03/31 02:31:59;;;;;;;5.63;2.37;;;10.70;99.90;;;10.01;80.27;99656.81;5012771;28;20199;-75
2023/03/31 02:34:31;;;;;;;5.10;2.27;;;10.70;99.90;;;9.99;80.20;99656.19;5013905;28;20202;-76
2023/03/31 02:37:05;;;;;;;7.40;2.60;;;10.60;99.90;;;9.94;80.34;99648.69;5013682;28;20309;-75
2023/03/31 02:39:43;;;;;;;6.40;2.50;;;10.60;99.90;;;9.96;80.03;99640.50;5014157;28;20194;-76
2023/03/31 02:42:16;;;;;;;6.07;2.40;;;10.60;99.90;;;9.97;80.00;99642.16;5014084;28;20206;-75
2023/03/31 02:44:49;;;;;;;5.33;2.17;;;10.60;99.90;;;9.89;80.26;99644.94;5013519;28;20587;-75
2023/03/31 02:47:23;;;;;;;6.13;2.60;;;10.50;99.90;;;9.84;80.26;99639.28;5013385;28;20223;-77
2023/03/31 02:50:00;;;;;;;5.33;2.40;;;10.50;99.90;;;9.82;80.24;99638.66;5013763;28;20217;-77
2023/03/31 02:52:50;;;;;;;7.17;2.63;;;10.50;99.90;;;9.81;80.30;99637.81;5013890;28;20191;-77
2023/03/31 02:55:56;;;;;;;9.23;2.47;;;10.50;99.90;;;9.85;80.25;99627.59;5013748;28;20302;-77
2023/03/31 02:58:50;;;;;;;7.07;2.47;;;10.50;99.90;;;9.84;80.16;99628.59;5013710;28;20698;-77
2023/03/31 03:01:56;;;;;;;3.83;2.03;;;10.50;99.90;;;9.83;80.23;99618.94;5013426;28;20554;-77
2023/03/31 03:05:12;;;;;;;7.60;2.37;;;10.50;99.90;;;9.83;80.05;99613.59;5013551;28;20262;-77
2023/03/31 03:07:58;;;;;;;6.60;2.53;;;10.50;99.90;;;9.84;80.35;99620.56;5013718;28;20195;-77
2023/03/31 03:10:43;;;;;;;9.17;2.50;;;10.50;99.90;;;9.81;80.39;99615.59;5013622;28;20203;-77
2023/03/31 03:13:28;;;;;;;5.57;2.20;;;10.50;99.90;;;9.78;80.15;99611.44;5013627;28;20196;-77
2023/03/31 03:16:06;;;;;;;9.77;2.43;;;10.40;99.90;;;9.78;80.22;99607.94;5013528;28;20227;-77
2023/03/31 03:18:39;;;;;;;5.83;2.50;;;10.40;99.90;;;9.81;80.15;99610.25;5013595;28;20195;-77
2023/03/31 03:21:11;;;;;;;5.00;2.50;;;10.50;99.90;;;9.81;80.48;99604.91;5013537;28;20200;-77
2023/03/31 03:23:43;;;;;;;5.70;2.40;;;10.40;99.90;;;9.83;79.98;99592.19;5013529;28;20200;-77
2023/03/31 03:26:20;;;;;;;6.60;2.37;;;10.50;99.90;;;9.82;80.30;99596.72;5013426;28;20239;-77
2023/03/31 03:28:52;;;;;;;7.43;2.27;;;10.40;99.90;;;9.79;80.19;99593.56;5013179;28;20706;-77
2023/03/31 03:31:25;;;;;;;4.97;2.10;;;10.40;99.90;;;9.78;80.43;99587.38;5013701;28;20196;-77
2023/03/31 03:33:59;;;;;;;7.20;2.50;;;10.40;99.90;;;9.77;79.94;99582.22;5013239;28;20199;-77
2023/03/31 03:36:31;;;;;;;4.97;1.90;;;10.40;99.90;;;9.75;80.31;99579.75;5012990;28;20687;-77
2023/03/31 03:39:03;;;;;;;6.30;2.53;;;10.40;99.90;;;9.74;80.19;99578.06;5013394;28;20191;-77
2023/03/31 03:41:35;;;;;;;5.67;2.40;;;10.40;99.90;;;9.67;80.78;99572.63;5013317;28;20540;-77
2023/03/31 03:44:07;;;;;;;6.30;2.30;;;10.30;99.90;;;9.63;80.70;99565.97;5015393;28;20192;-77
2023/03/31 03:46:39;;;;;;;7.17;2.80;;;10.30;99.90;;;9.63;81.01;99565.16;5016870;28;20227;-77
2023/03/31 03:49:12;;;;;;;6.57;2.03;;;10.30;99.90;;;9.61;80.86;99554.66;5016509;28;20215;-77
2023/03/31 03:51:44;;;;;;;5.53;1.80;;;10.20;99.90;;;9.61;80.81;99535.97;5016876;28;20249;-77
2023/03/31 03:54:16;;;;;;;7.80;2.10;;;10.30;99.90;;;9.60;80.90;99539.63;5016787;28;20195;-77
2023/03/31 03:56:48;;;;;;;8.73;2.40;;;10.20;99.90;;;9.59;80.66;99527.28;5016802;28;20246;-77
2023/03/31 03:59:19;;;;;;;7.50;2.60;;;10.30;99.90;;;9.57;81.07;99528.47;5016721;28;20192;-77
2023/03/31 04:01:51;;;;;;;5.07;2.10;;;10.20;99.90;;;9.52;81.20;99523.69;5016722;28;20568;-78
2023/03/31 04:04:25;;;;;;;5.90;2.67;;;10.20;99.90;;;9.50;81.27;99514.19;5016522;28;20215;-77
2023/03/31 04:06:57;;;;;;;5.17;2.17;;;10.20;99.90;;;9.48;81.61;99509.03;5016600;28;20227;-77
2023/03/31 04:09:29;;;;;;;5.27;2.20;;;10.10;99.90;;;9.50;80.87;99500.84;5016446;28;20219;-77
2023/03/31 04:12:00;;;;;;;5.03;2.00;;;10.20;99.90;;;9.47;81.04;99502.03;5016474;28;20191;-77
2023/03/31 04:14:32;;;;;;;4.70;1.90;;;10.10;99.90;;;9.44;81.11;99504.25;5016438;28;20207;-77
2023/03/31 04:17:04;;;;;;;8.10;2.17;;;10.10;99.90;;;9.42;81.10;99504.41;5016025;28;20233;-77
2023/03/31 04:19:41;;;;;;;6.57;2.27;;;10.10;99.90;;;9.39;81.23;99488.75;5017140;28;20215;-77
2023/03/31 04:22:14;;;;;;;6.33;2.03;;;10.10;99.90;;;9.39;80.95;99486.09;5016304;28;20195;-77
2023/03/31 04:24:51;;;;;;;6.97;1.90;;;10.10;99.90;;;9.40;81.19;99481.56;5016299;28;20200;-77
2023/03/31 04:27:26;;;;;;;6.77;1.97;;;10.10;99.90;;;9.40;80.92;99474.41;5016154;28;20234;-77
2023/03/31 04:29:57;;;;;;;8.17;2.50;;;10.10;99.90;;;9.42;80.80;99471.53;5015841;28;20742;-77
2023/03/31 04:32:31;;;;;;;3.77;1.80;;;10.10;99.90;;;9.40;80.63;99457.53;5016102;28;20202;-77
2023/03/31 04:35:05;;;;;;;10.00;2.00;;;10.00;99.90;;;9.38;81.34;99459.56;5016070;28;20258;-77
2023/03/31 04:37:37;;;;;;;6.73;2.40;;;10.10;99.90;;;9.36;81.17;99446.38;5016068;28;20211;-77
2023/03/31 04:40:12;;;;;;;5.90;1.90;;;10.00;99.90;;;9.37;81.08;99444.56;5015701;28;20636;-77
2023/03/31 04:42:45;;;;;;;7.17;1.70;;;10.00;99.90;;;9.32;81.13;99429.06;5016011;28;20198;-77
2023/03/31 04:45:17;;;;;;;6.10;2.20;;;10.00;99.90;;;9.33;81.44;99420.06;5015918;28;20204;-77
2023/03/31 04:47:49;;;;;;;7.10;2.23;;;10.00;99.90;;;9.33;81.21;99420.06;5016116;28;20195;-77
2023/03/31 04:50:22;;;;;;;6.07;2.00;;;10.00;99.90;;;9.34;81.15;99413.69;5016060;28;20238;-77
2023/03/31 04:52:54;;;;;;;3.63;1.63;;;10.00;99.90;;;9.35;81.27;99412.66;5015854;28;20660;-77
2023/03/31 04:55:27;;;;;;;5.67;2.50;;;10.00;99.90;;;9.36;81.12;99403.66;5014822;28;20223;-77
2023/03/31 04:57:58;;;;;;;6.47;1.90;;;10.00;99.90;;;9.37;81.15;99399.16;5015566;28;20192;-77
2023/03/31 05:00:30;;;;;;;6.57;2.20;;;10.00;99.90;;;9.37;80.69;99386.63;5015648;28;20195;-77
2023/03/31 05:03:03;;;;;;;5.00;2.13;;;10.00;99.90;;;9.37;81.27;99389.28;5015580;28;20556;-78
2023/03/31 05:05:36;;;;;;;8.00;2.53;;;10.00;99.90;;;9.36;81.32;99386.78;5015354;28;20231;-78
2023/03/31 05:08:08;;;;;;;5.20;1.93;;;10.00;99.90;;;9.36;81.44;99376.09;5015480;28;20191;-78
2023/03/31 05:10:40;;;;;;;5.67;2.17;;;10.00;99.90;;;9.33;81.54;99371.97;5015356;28;20207;-78
2023/03/31 05:13:13;;;;;;;7.10;2.00;;;9.90;99.90;;;9.29;81.63;99373.34;5015405;28;20187;-78
2023/03/31 05:15:46;;;;;;;5.77;2.17;;;10.00;99.90;;;9.26;81.91;99368.38;5015450;28;20263;-78
2023/03/31 05:18:18;;;;;;;6.87;2.53;;;9.90;99.90;;;9.24;81.69;99366.91;5015339;28;20191;-78
2023/03/31 05:20:51;;;;;;;5.03;2.10;;;9.90;99.90;;;9.20;81.82;99361.13;5014882;28;20690;-78
2023/03/31 05:23:23;;;;;;;6.93;2.47;;;9.90;99.90;;;9.18;81.82;99353.28;5015726;28;20578;-78
2023/03/31 05:25:55;;;;;;;4.70;2.10;;;9.80;99.90;;;9.19;81.87;99359.44;5014768;28;20234;-77
2023/03/31 05:28:27;;;;;;;7.47;2.37;;;9.80;99.90;;;9.18;81.97;99357.78;5015078;28;20191;-77
2023/03/31 05:31:04;;;;;;;6.97;2.50;;;9.80;99.90;;;9.19;81.76;99359.44;5015240;28;20211;-77
2023/03/31 05:33:40;;;;;;;7.90;2.83;;;9.80;99.90;;;9.20;81.96;99361.13;5015027;28;20205;-77
2023/03/31 05:36:17;;;;;;;5.90;3.60;;;9.80;99.90;;;9.20;81.89;99360.28;5014632;28;20781;-77
2023/03/31 05:38:51;;;;;;;14.60;3.80;;;9.80;99.90;;;9.18;82.40;99347.94;5014868;28;20198;-77
2023/03/31 05:41:22;;;;;;;5.60;3.10;;;9.80;99.90;;;9.20;82.62;99350.44;5014883;28;20218;-77
2023/03/31 05:43:54;;;;;;;8.83;2.87;;;9.80;99.90;;;9.21;82.58;99351.28;5014539;28;20672;-77
2023/03/31 05:46:26;;;;;;;6.27;2.30;;;9.80;99.90;;;9.20;82.70;99350.44;5014701;28;20235;-77
2023/03/31 05:48:59;;;;;;;4.70;1.93;;;9.80;99.90;;;9.20;83.13;99352.28;5014749;28;20196;-77
2023/03/31 05:51:32;;;;;;;6.27;2.13;;;9.80;99.90;;;9.20;83.98;99350.44;5014299;28;20207;-77
2023/03/31 05:54:05;;;;;;;5.10;2.30;;;9.80;99.90;;;9.20;83.58;99355.78;5014335;28;20191;-77
2023/03/31 05:56:36;;;;;;;6.20;2.37;;;9.80;99.90;;;9.21;83.97;99357.44;5014519;28;20236;-77
2023/03/31 05:59:08;;;;;;;5.53;2.30;;;9.80;99.90;;;9.22;83.94;99348.41;5014321;28;20203;-77
2023/03/31 06:01:40;;;;;;;5.33;2.20;;;9.90;99.90;;;9.23;84.51;99352.72;5014460;28;20188;-77
2023/03/31 06:04:12;;;;;;;9.60;2.57;;;9.90;99.90;;;9.21;85.13;99346.75;5014326;28;20191;-77
2023/03/31 06:06:49;;;;;;;7.00;2.20;;;9.90;99.90;;;9.20;84.72;99345.09;5014066;28;20660;-77
2023/03/31 06:09:20;;;;;;;4.50;2.30;;;9.80;99.90;;;9.22;84.69;99345.72;5014089;28;20561;-77
2023/03/31 06:11:52;;;;;;;6.00;2.27;;;9.90;99.90;;;9.23;84.49;99334.03;5014336;28;20196;-77
2023/03/31 06:14:24;;;;;;;7.43;2.50;;;9.90;99.90;;;9.25;84.92;99337.34;5014354;28;20188;-77
2023/03/31 06:16:56;;;;;;;6.13;2.70;;;9.90;99.90;;;9.25;84.74;99326.66;5014197;28;20246;-77
2023/03/31 06:19:30;;;;;;;6.80;2.67;;;9.90;99.90;;;9.25;85.41;99315.97;5013955;28;20199;-77
2023/03/31 06:22:03;;;;;;;5.57;2.30;;;9.90;99.90;;;9.29;85.10;99313.75;5014241;28;20195;-77
2023/03/31 06:24:35;;;;;;;5.57;1.87;;;10.00;99.90;;;9.31;85.41;99309.91;5014217;28;20548;-77
2023/03/31 06:27:07;;;;;;;4.57;2.20;;;9.90;99.90;;;9.30;85.75;99308.25;5014092;28;20231;-77
2023/03/31 06:29:39;;;;;;;4.40;2.10;;;10.00;99.90;;;9.30;85.53;99308.25;5014575;28;20258;-77
2023/03/31 06:32:11;;;;;;;5.23;2.20;;;9.90;99.90;;;9.33;85.56;99307.03;5014040;28;20202;-77
2023/03/31 06:34:43;;;;;;;5.73;2.23;;;10.00;99.90;;;9.35;85.88;99299.69;5014178;28;20211;-77
2023/03/31 06:37:16;;;;;;;5.77;2.40;;;10.00;99.90;;;9.33;86.27;99291.84;5013695;28;20711;-77
2023/03/31 06:39:49;;;;;;;6.40;2.13;;;10.00;99.90;;;9.34;86.21;99293.50;5014046;28;20195;-77
2023/03/31 06:42:21;;;;;;;6.87;2.73;;;10.00;99.90;;;9.34;86.17;99293.50;5014008;28;20188;-77
2023/03/31 06:44:54;;;;;;;5.13;1.93;;;10.00;99.90;;;9.34;86.32;99290.84;5013628;28;20602;-77
2023/03/31 06:47:26;;;;;;;4.40;2.10;;;10.00;99.90;;;9.34;86.21;99296.19;5013580;28;20234;-77
2023/03/31 06:49:58;;;;;;;5.43;1.93;;;10.00;99.90;;;9.35;86.35;99289.00;5013517;28;20608;-77
2023/03/31 06:52:31;;;;;;;8.40;2.30;;;10.00;99.90;;;9.35;85.96;99279.13;5013558;28;20195;-77
2023/03/31 06:55:03;;;;;;;6.17;2.57;;;10.00;99.90;;;9.37;85.91;99290.47;5013467;28;20600;-77
2023/03/31 06:57:35;;;;;;;7.67;2.93;;;10.00;99.90;;;9.38;85.64;99288.63;5013830;28;20191;-77
2023/03/31 07:00:09;;;;;;;9.00;2.70;;;10.00;99.90;;;9.38;86.61;99288.63;5013788;28;20277;-77
2023/03/31 07:02:42;;;;;;;4.43;2.10;;;10.00;99.90;;;9.40;86.58;99283.91;5014035;28;20195;-77
2023/03/31 07:05:13;;;;;;;4.73;2.30;;;10.10;99.90;;;9.41;86.46;99280.22;5014322;28;20592;-77
2023/03/31 07:07:46;;;;;;;6.77;2.20;;;10.10;99.90;;;9.40;86.79;99289.25;5016180;28;20202;-77
2023/03/31 07:10:18;;;;;;;6.03;2.53;;;10.10;99.90;;;9.38;87.58;99278.78;5018124;28;20211;-77
2023/03/31 07:12:50;;;;;;;7.10;2.37;;;10.00;99.90;;;9.39;87.50;99276.91;5018133;28;20191;-78
2023/03/31 07:15:23;;;;;;;5.87;1.93;;;10.00;99.90;;;9.38;87.54;99276.09;5016830;28;20235;-78
2023/03/31 07:18:00;;;;;;;4.80;2.50;;;10.00;99.90;;;9.39;87.99;99268.88;5015851;28;20641;-78
2023/03/31 07:20:33;;;;;;;5.10;2.47;;;10.00;99.90;;;9.39;87.59;99264.38;5019441;28;20188;-78
2023/03/31 07:23:08;;;;;;;7.07;2.17;;;10.00;99.90;;;9.40;88.10;99260.69;5019089;28;20196;-78
2023/03/31 07:25:40;;;;;;;6.27;2.33;;;10.10;99.90;;;9.39;88.54;99259.03;5018363;28;20222;-78
2023/03/31 07:28:12;;;;;;;7.37;2.23;;;10.00;99.90;;;9.41;88.20;99242.84;5018628;28;20199;-78
2023/03/31 07:30:45;;;;;;;6.37;2.17;;;10.00;99.90;;;9.40;88.31;99244.69;5017479;28;20211;-78
2023/03/31 07:33:17;;;;;;;4.63;2.10;;;10.10;99.90;;;9.40;88.23;99244.69;5017404;28;20679;-78
2023/03/31 07:35:49;;;;;;;7.50;2.20;;;10.00;99.90;;;9.41;88.50;99240.16;5017453;28;20231;-78
2023/03/31 07:38:44;;;;;;;9.43;2.17;;;10.10;99.90;;;9.41;88.34;99241.00;5016937;28;20658;-78
2023/03/31 07:41:18;;;;;;;5.53;2.10;;;10.10;99.90;;;9.39;88.58;99242.19;5017411;28;20190;-78
2023/03/31 07:43:50;;;;;;;6.30;2.07;;;10.10;99.90;;;9.38;88.95;99235.19;5017291;28;20639;-78
2023/03/31 07:46:26;;;;;;;4.30;2.03;;;10.00;99.90;;;9.39;88.96;99232.31;5017208;28;20234;-78
2023/03/31 07:49:01;;;;;;;6.33;2.20;;;10.00;99.90;;;9.39;88.63;99221.66;5017148;28;20202;-78
2023/03/31 07:51:33;;;;;;;7.87;2.17;;;10.00;99.90;;;9.38;88.83;99225.34;5017061;28;20215;-78
2023/03/31 07:54:07;;;;;;;3.90;1.90;;;10.00;99.90;;;9.39;88.58;99221.66;5016707;28;20582;-78
2023/03/31 07:56:39;;;;;;;5.00;2.23;;;10.00;99.90;;;9.41;88.98;99219.63;5016842;28;20227;-78
2023/03/31 07:59:11;;;;;;;7.87;2.67;;;10.10;99.90;;;9.42;89.15;99213.25;5016553;28;20649;-78
2023/03/31 08:01:43;;;;;;;4.23;2.20;;;10.10;99.90;;;9.43;89.06;99209.56;5016793;28;20238;-78
2023/03/31 08:04:15;;;;;;;7.80;2.17;;;10.10;99.90;;;9.45;88.94;99210.19;5016585;28;20559;-78
2023/03/31 08:06:47;;;;;;;4.50;2.33;;;10.10;99.90;;;9.45;88.73;99199.50;5016681;28;20739;-78
2023/03/31 08:09:21;;;;;;;4.90;2.13;;;10.10;99.90;;;9.49;88.98;99200.78;5016666;28;20199;-78
2023/03/31 08:11:53;;;;;;;6.73;2.70;;;10.10;99.90;;;9.51;89.07;99184.56;5016571;28;20222;-78
2023/03/31 08:14:24;;;;;;;5.60;2.30;;;10.20;99.90;;;9.55;88.86;99177.84;5016682;28;20211;-78
2023/03/31 08:17:11;;;;;;;6.50;2.97;;;10.20;99.90;;;9.61;89.18;99177.06;5016329;28;20714;-78
2023/03/31 08:19:43;;;;;;;6.57;2.60;;;10.20;99.90;;;9.63;89.09;99173.19;5017109;28;20191;-78
2023/03/31 08:22:15;;;;;;;7.97;2.50;;;10.30;99.90;;;9.65;89.20;99171.16;5016276;28;20647;-78
2023/03/31 08:24:48;;;;;;;7.80;2.50;;;10.30;99.90;;;9.68;89.73;99161.91;5016146;28;20652;-78
2023/03/31 08:27:20;;;;;;;5.40;2.63;;;10.30;99.90;;;9.68;89.16;99160.09;5016419;28;20231;-78
2023/03/31 08:29:52;;;;;;;4.73;2.60;;;10.30;99.90;;;9.67;89.12;99161.09;5015242;28;20203;-78
2023/03/31 08:32:26;;;;;;;4.33;2.50;;;10.30;99.90;;;9.68;89.10;99157.41;5016124;28;20211;-77
2023/03/31 08:34:58;;;;;;;5.37;2.93;;;10.30;99.90;;;9.68;88.90;99156.56;5016347;28;20204;-77
2023/03/31 08:37:30;;;;;;;5.57;2.80;;;10.30;99.90;;;9.69;88.65;99145.69;5016222;28;20199;-77
2023/03/31 08:40:04;;;;;;;6.70;3.20;;;10.30;99.90;;;9.73;88.90;99137.28;5016128;28;20195;-77
2023/03/31 08:42:43;;;;;;;9.03;2.53;;;10.40;99.90;;;9.74;88.83;99130.91;5016147;28;20210;-77
2023/03/31 08:45:22;;;;;;;6.27;2.93;;;10.40;99.90;;;9.78;88.47;99129.50;5015919;28;20195;-77
2023/03/31 08:47:59;;;;;;;6.63;2.93;;;10.40;99.90;;;9.79;88.47;99126.66;5016575;28;20188;-77
2023/03/31 08:50:36;;;;;;;5.50;2.87;;;10.50;99.90;;;9.82;88.43;99125.44;5015919;28;20215;-78
2023/03/31 08:53:20;;;;;;;5.27;2.93;;;10.50;99.90;;;9.85;88.92;99130.38;5015485;28;20679;-78
2023/03/31 08:55:56;;;;;;;4.27;3.07;;;10.50;99.90;;;9.86;88.77;99121.34;5015456;28;20591;-77
2023/03/31 08:58:39;;;;;;;8.07;3.10;;;10.50;99.90;;;9.88;88.77;99116.63;5015748;28;20253;-77
2023/03/31 09:01:24;;;;;;;7.80;3.13;;;10.50;99.90;;;9.88;88.70;99108.63;5015745;28;20187;-77
2023/03/31 09:04:26;;;;;;;6.70;3.23;;;10.50;99.90;;;9.91;88.49;99102.88;5015764;28;20621;-77
2023/03/31 09:07:13;;;;;;;5.23;3.07;;;10.50;99.90;;;9.91;88.42;99105.53;5016228;28;20237;-78
2023/03/31 09:09:59;;;;;;;6.80;3.67;;;10.60;99.90;;;9.94;88.39;99107.81;5015572;28;20195;-78
2023/03/31 09:12:49;;;;;;;6.40;2.77;;;10.60;99.90;;;9.97;88.55;99097.56;5015398;28;20218;-78
2023/03/31 09:15:28;;;;;;;5.10;2.80;;;10.60;99.90;;;10.01;88.30;99098.00;5015387;28;20191;-78
2023/03/31 09:18:10;;;;;;;6.50;2.87;;;10.70;99.90;;;10.06;87.87;99106.28;5015415;28;20199;-78
2023/03/31 09:20:48;;;;;;;4.30;2.57;;;10.70;99.90;;;10.11;86.70;99101.97;5015651;28;20192;-78
2023/03/31 09:23:32;;;;;;;4.13;2.63;;;10.80;99.90;;;10.18;84.95;99100.19;5015367;28;20188;-78
2023/03/31 09:26:12;;;;;;;8.43;2.63;;;10.90;99.90;;;10.22;85.07;99100.63;5015164;28;20233;-78
2023/03/31 09:28:48;;;;;;;4.10;2.60;;;10.90;99.90;;;10.22;85.58;99095.28;5015169;28;20210;-78
2023/03/31 09:31:23;;;;;;;4.13;2.10;;;10.90;99.90;;;10.23;84.90;99096.94;5015262;28;20199;-78
2023/03/31 09:34:10;;;;;;;3.50;1.97;;;10.90;99.90;;;10.23;85.52;99094.25;5015079;28;20206;-78
2023/03/31 09:36:42;;;;;;;6.47;2.30;;;10.90;99.90;;;10.20;85.57;99092.00;5014912;28;20230;-78
2023/03/31 09:39:16;;;;;;;3.10;2.40;;;10.90;99.90;;;10.16;86.29;99083.53;5014663;28;20195;-78
2023/03/31 09:41:52;;;;;;;2.57;1.77;;;10.80;99.90;;;10.13;86.57;99083.06;5014967;28;20199;-78
2023/03/31 09:44:34;;;;;;;11.63;2.10;;;10.80;99.90;;;10.11;86.45;99079.75;5015173;28;20359;-78
2023/03/31 09:47:11;;;;;;;3.90;1.87;;;10.80;99.90;;;10.06;86.35;99080.38;5015340;28;20243;-78
2023/03/31 09:49:45;;;;;;;5.47;2.03;;;10.70;99.90;;;10.05;86.75;99067.19;5015199;28;20195;-78
2023/03/31 09:52:31;;;;;;;4.03;1.90;;;10.70;99.90;;;10.06;87.24;99066.16;5016894;28;20299;-78
2023/03/31 09:55:07;;;;;;;4.97;1.93;;;10.70;99.90;;;10.04;87.13;99070.88;5016845;28;20286;-78
2023/03/31 09:57:41;;;;;;;4.80;2.13;;;10.70;99.90;;;10.04;87.31;99062.84;5014673;28;20196;-78
2023/03/31 10:00:23;;;;;;;5.37;2.37;;;10.70;99.90;;;10.05;87.91;99068.00;5014609;28;20190;-77
2023/03/31 10:02:57;;;;;;;4.60;1.80;;;10.70;99.90;;;10.02;87.92;99051.53;5014570;28;20183;-77
2023/03/31 10:05:35;;;;;;;3.03;2.00;;;10.70;99.90;;;10.02;88.34;99062.22;5014211;28;20245;-77
2023/03/31 10:08:24;;;;;;;4.50;2.00;;;10.60;99.90;;;10.01;88.24;99064.06;5014209;28;20589;-77
2023/03/31 10:11:07;;;;;;;4.93;2.10;;;10.60;99.90;;;10.00;88.39;99059.75;5014170;28;20195;-77
2023/03/31 10:13:46;;;;;;;4.60;2.10;;;10.60;99.90;;;9.96;88.52;99052.34;5014315;28;20211;-77
2023/03/31 10:16:30;;;;;;;4.80;2.10;;;10.60;99.90;;;9.95;88.71;99051.50;5014335;28;20227;-77
2023/03/31 10:19:21;;;;;;;4.03;1.80;;;10.60;99.90;;;9.95;88.69;99053.34;5014278;28;20282;-78
2023/03/31 10:22:02;;;;;;;6.20;2.20;;;10.60;99.90;;;9.94;89.10;99054.34;5014198;28;20207;-77
2023/03/31 10:24:43;;;;;;;5.67;2.07;;;10.60;99.90;;;9.92;89.38;99046.56;5014148;28;20203;-77
2023/03/31 10:27:25;;;;;;;4.60;1.90;;;10.60;99.90;;;9.92;89.39;99049.22;5014127;28;20227;-77
2023/03/31 10:30:00;;;;;;;3.77;2.10;;;10.60;99.90;;;9.94;89.05;99044.50;5013866;28;20636;-77
2023/03/31 10:32:40;;;;;;;5.47;2.03;;;10.60;99.90;;;9.93;89.39;99045.50;5014030;28;20217;-77
2023/03/31 10:35:30;;;;;;;4.23;2.00;;;10.60;99.90;;;9.93;89.30;99047.38;5013977;28;20195;-77
2023/03/31 10:38:07;;;;;;;6.80;2.20;;;10.60;99.90;;;9.90;89.12;99035.22;5013705;28;20570;-78
2023/03/31 10:40:41;;;;;;;4.70;1.90;;;10.60;99.90;;;9.86;89.08;99043.84;5014029;28;20187;-77
2023/03/31 10:43:20;;;;;;;3.27;1.80;;;10.50;99.90;;;9.87;88.97;99032.94;5014034;28;20595;-77
2023/03/31 10:45:55;;;;;;;3.13;1.97;;;10.50;99.90;;;9.89;88.75;99032.75;5013877;28;20235;-77
2023/03/31 10:48:32;;;;;;;3.40;1.80;;;10.50;99.90;;;9.91;89.57;99038.72;5013906;28;20295;-77
2023/03/31 10:51:11;;;;;;;3.93;1.80;;;10.50;99.90;;;9.89;88.25;99030.09;5013873;28;20195;-77
2023/03/31 10:53:48;;;;;;;3.33;1.83;;;10.50;99.90;;;9.91;88.01;99033.38;5013511;28;20265;-77
2023/03/31 10:56:38;;;;;;;3.73;1.70;;;10.60;99.90;;;9.89;87.75;99032.75;5013404;28;20726;-78
2023/03/31 10:59:45;;;;;;;3.83;1.63;;;10.60;99.90;;;9.88;86.18;99044.47;5013846;28;20266;-77
2023/03/31 11:02:56;;;;;;;2.30;1.40;;;10.50;99.90;;;9.89;86.17;99030.91;5013812;28;20187;-77
2023/03/31 11:05:42;;;;;;;3.27;1.40;;;10.60;99.90;;;9.87;85.58;99032.09;5000944;28;20258;-77
2023/03/31 11:08:37;;;;;;;1.93;1.30;;;10.50;99.90;;;9.87;85.74;99032.09;5013763;28;20214;-77